• Join FlightAware (Why Join?)
  • Login
  • US Flag GB Flag 
00:55 EST


 

Airport Tracker/Info


-or-


 

Live Flight TrackerFlight Track Log ✈ AAL2007 ✈ 01-Aug-2013 ✈ KORD - KAUS

Flight Track Log - Related Links

Times and Time Zones

All times are in EDT time to prevent confusion due to time zone crossing. See the AAL2007 flight status page for this flight to view local times or setup timezone preferences in your user account.

Time Position Orientation Groundspeed Altitude Reporting Facility
EDT Latitude Longitude Course Direction KTS MPH feet Rate Location/Type
18:06 41.9000 -87.9500 194° South 188 216 3,500  Level Chicago TRACON
18:08 41.6963 -88.1923 201° Southwest  Level Estimated
18:08 41.8056 -87.9647 187° South 256 295 6,400  Level Chicago Center
18:09 41.6010 -88.2869 197° South  Level Estimated
18:09 41.7267 -87.9844 191° South 291 335 8,900  Level Chicago Center
18:10 41.5057 -88.3812 194° South  Level Estimated
18:10 41.6531 -88.0333 206° Southwest 296 341 11,700  Level Chicago Center
18:11 41.4102 -88.4753 207° Southwest  Level Estimated
18:11 41.5719 -88.0778 202° Southwest 313 360 14,200  Level Chicago Center
18:12 41.3196 -88.5643 194° South  Level Estimated
18:12 41.4769 -88.1378 205° Southwest 321 369 16,800  Level Chicago Center
18:13 41.3886 -88.1892 204° Southwest 363 418 17,900 1,020 Climbing Chicago Center
18:14 41.2831 -88.2333 197° South 405 466 19,000 1,440 Climbing Chicago Center
18:15 41.1717 -88.2844 199° South 425 489 20,900 1,920 Climbing Chicago Center
18:16 41.0333 -88.3483 199° South 439 505 23,000 1,800 Climbing Chicago Center
18:17 40.9150 -88.4003 198° South 448 516 24,700 1,500 Climbing Chicago Center
18:18 40.7961 -88.4606 201° Southwest 460 529 26,100 1,200 Climbing Chicago Center
18:19 40.7092 -88.5733 225° Southwest 437 503 27,300 1,200 Climbing Chicago Center
18:20 40.6122 -88.6772 219° Southwest 450 518 28,700 1,620 Climbing Chicago Center
18:21 40.4933 -88.8019 219° Southwest 457 526 30,700 1,620 Climbing Chicago Center
18:22 40.4117 -88.8861 218° Southwest 445 512 32,100 1,200 Climbing Chicago Center
18:23 40.2967 -89.0064 219° Southwest 440 506 33,300 840 Climbing Chicago Center
18:25 40.2025 -89.1058 219° Southwest 436 502 33,900 300 Climbing Chicago Center
18:25 40.1239 -89.1867 218° Southwest 437 503 34,000  Climbing Kansas City Center
18:26 40.0472 -89.2675 219° Southwest 438 504 34,000  Level Kansas City Center
18:28 39.9131 -89.4078 219° Southwest 439 505 34,000  Level Kansas City Center
18:29 39.8164 -89.5069 218° Southwest 440 506 34,000  Level Kansas City Center
18:30 39.7203 -89.6078 219° Southwest 442 509 34,000  Level Kansas City Center
18:31 39.6261 -89.7028 218° Southwest 442 509 34,000  Level Kansas City Center
18:32 39.5300 -89.8036 219° Southwest 444 511 34,000  Level Kansas City Center
18:33 39.4147 -89.9208 218° Southwest 442 509 34,000  Level Kansas City Center
18:34 39.3181 -90.0197 218° Southwest 442 509 34,000  Level Kansas City Center
18:35 39.2208 -90.1189 218° Southwest 445 512 34,000  Level Kansas City Center
18:36 39.1239 -90.2172 218° Southwest 446 513 34,000  Level Kansas City Center
18:37 39.0283 -90.3150 218° Southwest 443 510 34,000  Level Kansas City Center
18:38 38.9244 -90.4192 218° Southwest 439 505 34,000  Level Kansas City Center
18:39 38.8294 -90.5192 219° Southwest 439 505 34,000  Level Kansas City Center
18:40 38.7350 -90.6231 221° Southwest 440 506 34,000  Level Kansas City Center
18:41 38.6408 -90.7358 223° Southwest 437 503 34,000  Level Kansas City Center
18:42 38.5503 -90.8406 222° Southwest 441 507 34,000  Level Kansas City Center
18:43 38.4408 -90.9661 222° Southwest 446 513 34,000  Level Kansas City Center
18:44 38.3494 -91.0697 222° Southwest 442 509 34,000  Level Kansas City Center
18:45 38.2575 -91.1736 222° Southwest 441 507 34,000  Level Kansas City Center
18:46 38.1639 -91.2792 222° Southwest 447 514 34,000  Level Kansas City Center
18:47 38.0717 -91.3817 221° Southwest 445 512 34,000  Level Kansas City Center
18:48 37.9608 -91.5089 222° Southwest 445 512 34,000  Level Kansas City Center
18:49 37.8672 -91.6153 222° Southwest 448 516 34,000  Level Kansas City Center
18:50 37.7717 -91.7214 221° Southwest 450 518 34,000  Level Kansas City Center
18:51 37.6750 -91.8289 221° Southwest 456 525 34,000  Level Kansas City Center
18:52 37.5800 -91.9356 222° Southwest 455 524 34,000  Level Kansas City Center
18:53 37.4864 -92.0394 221° Southwest 448 516 34,000  Level Kansas City Center
18:54 37.3936 -92.1439 222° Southwest 445 512 34,000  Level Kansas City Center
18:55 37.2989 -92.2461 221° Southwest 445 512 34,000  Level Kansas City Center
18:56 37.1889 -92.3678 221° Southwest 440 506 34,000  Level Kansas City Center
18:57 37.0936 -92.4706 221° Southwest 442 509 34,000  Level Kansas City Center
18:59 36.9986 -92.5742 221° Southwest 446 513 34,000  Level Kansas City Center
19:00 36.9033 -92.6781 221° Southwest 449 517 34,000  Level Kansas City Center
19:01 36.8083 -92.7808 221° Southwest 450 518 34,000  Level Kansas City Center
19:02 36.7119 -92.8814 220° Southwest 452 520 34,000  Level Kansas City Center
19:03 36.6153 -92.9808 220° Southwest 452 520 34,000  Level Kansas City Center
19:04 36.5047 -93.0986 221° Southwest 450 518 34,000  Level Kansas City Center
19:05 36.4106 -93.2003 221° Southwest 451 519 34,000  Level Kansas City Center
19:06 36.3144 -93.3036 221° Southwest 456 525 34,000  Level Kansas City Center
19:07 36.1981 -93.4278 221° Southwest 461 531 34,000  Level Memphis Center
19:08 36.1036 -93.5297 221° Southwest 461 531 34,000  Level Memphis Center
19:09 36.0072 -93.6286 220° Southwest 461 531 34,000  Level Memphis Center
19:10 35.9128 -93.7300 221° Southwest 461 531 34,000  Level Memphis Center
19:11 35.8164 -93.8283 220° Southwest 461 531 34,000  Level Memphis Center
19:12 35.7217 -93.9292 221° Southwest 461 531 34,000  Level Memphis Center
19:13 35.6250 -94.0272 220° Southwest 461 531 34,000  Level Memphis Center
19:14 35.5283 -94.1275 220° Southwest 461 531 34,000  Level Memphis Center
19:15 35.4314 -94.2250 219° Southwest 461 531 34,000  Level Memphis Center
19:16 35.3283 -94.3169 216° Southwest 461 531 34,000  Level Memphis Center
19:17 35.2214 -94.4008 213° Southwest 461 531 34,000  Level Memphis Center
19:18 35.1125 -94.4794 211° Southwest 461 531 34,000  Level Memphis Center
19:19 35.0356 -94.5458 215° Southwest 466 536 34,000  Level Fort Worth Center
19:20 34.9269 -94.6278 212° Southwest 471 542 34,000  Level Fort Worth Center
19:21 34.8100 -94.7125 211° Southwest 465 535 34,000  Level Fort Worth Center
19:22 34.7011 -94.7994 213° Southwest 465 535 34,000  Level Fort Worth Center
19:23 34.5942 -94.8783 211° Southwest 465 535 34,000  Level Fort Worth Center
19:24 34.4894 -94.9569 212° Southwest 465 535 34,000  Level Fort Worth Center
19:25 34.3783 -95.0431 213° Southwest 465 535 34,000  Level Fort Worth Center
19:26 34.2694 -95.1217 211° Southwest 465 535 34,000  Level Fort Worth Center
19:27 34.1581 -95.2022 211° Southwest 465 535 34,000  Level Fort Worth Center
19:28 34.0508 -95.2828 212° Southwest 465 535 34,000  Level Fort Worth Center
19:29 33.9417 -95.3631 211° Southwest 465 535 34,000  Level Fort Worth Center
19:30 33.8344 -95.4406 211° Southwest 465 535 34,000  Level Fort Worth Center
19:31 33.7272 -95.5228 213° Southwest 465 535 34,000  Level Fort Worth Center
19:32 33.6300 -95.5897 210° Southwest 460 529 34,000  Level Fort Worth Center
19:33 33.5225 -95.6667 211° Southwest 460 529 34,000  Level Fort Worth Center
19:34 33.4131 -95.7461 211° Southwest 460 529 34,000  Level Fort Worth Center
19:35 33.3075 -95.8228 211° Southwest 460 529 34,000  Level Fort Worth Center
19:36 33.1981 -95.9017 211° Southwest 465 535 34,000  Level Fort Worth Center
19:37 33.0883 -95.9803 211° Southwest 465 535 34,000  Level Fort Worth Center
19:38 32.9806 -96.0589 211° Southwest 465 535 34,000  Level Fort Worth Center
19:39 32.8750 -96.1347 211° Southwest 465 535 34,000  Level Fort Worth Center
19:40 32.7631 -96.2128 210° Southwest 465 535 34,000  Level Fort Worth Center
19:41 32.6550 -96.2931 212° Southwest 465 535 34,000  Level Fort Worth Center
19:42 32.5450 -96.3683 210° Southwest 465 535 34,000  Level Fort Worth Center
19:43 32.4247 -96.4536 211° Southwest 465 535 34,000  Level Fort Worth Center
19:44 32.3147 -96.5333 211° Southwest 465 535 34,000  Level Fort Worth Center
19:45 32.2067 -96.6106 211° Southwest 465 535 34,000  Level Fort Worth Center
19:46 32.1006 -96.6875 212° Southwest 460 529 34,000  Level Fort Worth Center
19:47 31.9903 -96.7642 211° Southwest 460 529 34,000 -300 Level Fort Worth Center
19:48 31.8822 -96.8358 209° Southwest 458 527 33,500 -1,080 Descending Fort Worth Center
19:48 31.8294 -96.8753 212° Southwest 457 526 32,300 -2,280 Descending Houston Center
19:49 31.7167 -96.9531 210° Southwest 463 533 29,900 -2,520 Descending Houston Center
19:50 31.6028 -97.0331 211° Southwest 469 540 27,200 -2,580 Descending Houston Center
19:51 31.4850 -97.1019 207° Southwest 470 541 24,600 -2,640 Descending Houston Center
19:52 31.3422 -97.1564 198° South 460 529 21,800 -2,460 Descending Houston Center
19:53 31.2261 -97.2014 198° South 442 509 19,600 -2,100 Descending Houston Center
19:54 31.1156 -97.2453 199° South 423 487 17,500 -2,040 Descending Houston Center
19:55 31.0086 -97.2869 198° South 411 473 15,500 -1,860 Descending Houston Center
19:56 30.9075 -97.3269 199° South 403 464 13,800 -1,740 Descending Houston Center
19:58 30.7917 -97.3708 198° South 376 433 12,000 -1,500 Descending Houston Center
19:59 30.7092 -97.4333 213° Southwest 353 406 10,800 -1,260 Descending Houston Center
20:00 30.6378 -97.4919 215° Southwest 322 371 9,500 -1,800 Descending Houston Center
20:01 30.5672 -97.5433 212° Southwest 302 348 7,100 -2,040 Descending Houston Center
20:02 30.4967 -97.5781 203° Southwest 280 322 5,300 -1,620 Descending Houston Center
20:02 30.4614 -97.5947 202° Southwest 233 268 4,600 -1,560 Descending Houston Center
20:03 30.4375 -97.6078 205° Southwest 239 275 3,700 -1,080 Descending Houston Center
20:04 30.3781 -97.6378 204° Southwest 231 266 3,000 -540 Descending Houston Center
20:05 30.3119 -97.6717 204° Southwest 223 257 2,600 -840 Descending Houston Center
20:06 30.2608 -97.6808 189° South 202 232 1,400 -840 Descending Houston Center
20:07 30.2197 -97.6797 179° South 177 204 1,000 -420 Descending Houston Center